Sensation — C6FM8 — position and weather

sailwx.info

Track history (hours):
 
Tides and Currents Weather Stations Pressure Air Temp Water Temp Dewpoint Dewpoint Depression Visibility Wind Speed Wind Dir Waves Ship Positions

Sensation

Last reported at 2018-May-26 12:58 UTC. Time now 2018-May-26 13:21 UTC.
Position N 25°47' W 080°10'.

Type: Ship. MMSI: 309697000.

Date/timePositionNaut miles runAvg speedWind from/ knotsBaromVisibWave heightAir tempDewpointWater temp
2018-May-26 12:58N 25°47' W 080°10'0 0.0
2018-May-26 12:28N 25°47' W 080°10'0 0.0
2018-May-26 11:58N 25°47' W 080°10'0 0.0
2018-May-26 11:28N 25°47' W 080°10'0 0.0
2018-May-26 11:00N 25°47' W 080°10'3 5.1
2018-May-26 10:31N 25°46' W 080°08'510.0
2018-May-26 10:00N 25°46' W 080°02'612.8
2018-May-26 09:30N 25°42' W 079°57'815.6
2018-May-26 09:00N 25°34' W 079°56'816.4
2018-May-26 08:30N 25°26' W 079°56'816.2
2018-May-26 08:00N 25°18' W 079°57'  
2018-May-21 23:13N 25°23' W 079°37'316.4
2018-May-21 23:00N 25°26' W 079°38'815.6
2018-May-21 22:29N 25°34' W 079°40'816.3
2018-May-21 22:00N 25°37' W 079°48'815.4
2018-May-21 21:30N 25°40' W 079°56'713.5
2018-May-21 21:00N 25°44' W 080°02'510.3
2018-May-21 20:30N 25°46' W 080°08'3 6.7
2018-May-21 20:00N 25°47' W 080°11'1 1.2
2018-May-21 19:28N 25°47' W 080°10'0 0.0
2018-May-21 18:58N 25°47' W 080°10'0 0.0
2018-May-21 18:25N 25°47' W 080°10'0 0.0
2018-May-21 17:59N 25°47' W 080°10'0 0.0
2018-May-21 17:22N 25°47' W 080°10'0 0.0
2018-May-21 16:58N 25°47' W 080°10'0 0.0
2018-May-21 16:28N 25°47' W 080°10'0 0.0
2018-May-21 15:58N 25°47' W 080°10'0 0.0
2018-May-21 15:25N 25°47' W 080°10'0 0.0
2018-May-21 15:00N 25°47' W 080°10'0 0.0
2018-May-21 14:30N 25°47' W 080°10'0 0.0
2018-May-21 14:00N 25°47' W 080°10'0 0.0
2018-May-21 13:30N 25°47' W 080°10'0 0.0
2018-May-21 13:00N 25°47' W 080°10'0 0.0
2018-May-21 12:30N 25°47' W 080°10'0 0.0
2018-May-21 11:50N 25°47' W 080°10'0 0.0
2018-May-21 11:29N 25°47' W 080°10'0 0.5
2018-May-21 11:00N 25°47' W 080°10'4 7.5
2018-May-21 10:30N 25°46' W 080°06'510.6
2018-May-21 10:00N 25°45' W 080°00'3 5.9
2018-May-21 09:30N 25°46' W 079°58'5 9.2
2018-May-21 09:00N 25°46' W 079°53'612.4
2018-May-21 08:29N 25°46' W 079°45'43 1.4
2018-May-20 01:36N 26°12' W 079°08'114.0
2018-May-20 01:30N 26°12' W 079°10'714.4
2018-May-20 01:00N 26°15' W 079°17'12 0.7
2018-May-19 07:51N 26°26' W 079°23'411.7
2018-May-19 07:31N 26°22' W 079°23'611.6
2018-May-19 07:00N 26°16' W 079°23'5 9.6
2018-May-19 06:31N 26°14' W 079°19'13 0.5
2018-May-18 01:57N 26°25' W 079°12'811.5
2018-May-18 01:15N 26°26' W 079°21'412.7
2018-May-18 00:57N 26°22' W 079°23'511.9
2018-May-18 00:30N 26°18' W 079°25'612.2
2018-May-18 00:00N 26°12' W 079°28'612.5
2018-May-17 23:30N 26°07' W 079°32'713.6
2018-May-17 23:00N 26°01' W 079°35'815.5
2018-May-17 22:30N 25°54' W 079°39'714.5
2018-May-17 22:01N 25°48' W 079°43'612.1
2018-May-17 21:29N 25°47' W 079°50'612.2
2018-May-17 21:00N 25°47' W 079°57'612.3
2018-May-17 20:30N 25°47' W 080°04'510.0
2018-May-17 20:00N 25°46' W 080°09'1 2.1
2018-May-17 19:28N 25°47' W 080°10'0 0.0
2018-May-17 18:58N 25°47' W 080°10'0 0.0
2018-May-17 18:28N 25°47' W 080°10'0 0.0
2018-May-17 17:58N 25°47' W 080°10'0 0.0
2018-May-17 17:28N 25°47' W 080°10'0 0.0
2018-May-17 16:58N 25°47' W 080°10'0 0.0
2018-May-17 16:28N 25°47' W 080°10'0 0.0
2018-May-17 15:58N 25°47' W 080°10'0 0.0
2018-May-17 15:28N 25°47' W 080°10'0 0.0
2018-May-17 14:58N 25°47' W 080°10'0 0.0
2018-May-17 14:28N 25°47' W 080°10'0 0.0
2018-May-17 13:58N 25°47' W 080°10'0 0.0
2018-May-17 13:25N 25°47' W 080°10'0 0.0
2018-May-17 12:58N 25°47' W 080°10'0 0.0
2018-May-17 12:28N 25°47' W 080°10'0 0.0
2018-May-17 11:52N 25°47' W 080°10'0 0.0
2018-May-17 11:22N 25°47' W 080°10'0 0.0
2018-May-17 10:58N 25°47' W 080°10'0 0.6
2018-May-17 10:30N 25°47' W 080°10'1 2.3
2018-May-17 10:00N 25°46' W 080°09'611.6
2018-May-17 09:30N 25°46' W 080°03'510.5
2018-May-17 09:00N 25°47' W 079°57'510.5
2018-May-17 08:31N 25°49' W 079°52'714.6
2018-May-17 08:00N 25°53' W 079°45'815.8
2018-May-17 07:28N 25°59' W 079°38'816.5
2018-May-17 07:00N 26°03' W 079°31'816.7
2018-May-17 06:30N 26°09' W 079°24'917.1
2018-May-17 05:58N 26°15' W 079°17'  
Track history (hours):
 
Tides and Currents Weather Stations Pressure Air Temp Water Temp Dewpoint Dewpoint Depression Visibility Wind Speed Wind Dir Waves Ship Positions

Sensation

Last reported at 2018-May-26 12:58 UTC. Time now 2018-May-26 13:21 UTC.
Position N 25°47' W 080°10'.

Type: Ship. MMSI: 309697000.

Date/timePositionNaut miles runAvg speedWind from/ knotsBaromVisibWave heightAir tempDewpointWater temp
2018-May-26 12:58N 25°47' W 080°10'0 0.0
2018-May-26 12:28N 25°47' W 080°10'0 0.0
2018-May-26 11:58N 25°47' W 080°10'0 0.0
2018-May-26 11:28N 25°47' W 080°10'0 0.0
2018-May-26 11:00N 25°47' W 080°10'3 5.1
2018-May-26 10:31N 25°46' W 080°08'510.0
2018-May-26 10:00N 25°46' W 080°02'612.8
2018-May-26 09:30N 25°42' W 079°57'815.6
2018-May-26 09:00N 25°34' W 079°56'816.4
2018-May-26 08:30N 25°26' W 079°56'816.2
2018-May-26 08:00N 25°18' W 079°57'  
2018-May-21 23:13N 25°23' W 079°37'316.4
2018-May-21 23:00N 25°26' W 079°38'815.6
2018-May-21 22:29N 25°34' W 079°40'816.3
2018-May-21 22:00N 25°37' W 079°48'815.4
2018-May-21 21:30N 25°40' W 079°56'713.5
2018-May-21 21:00N 25°44' W 080°02'510.3
2018-May-21 20:30N 25°46' W 080°08'3 6.7
2018-May-21 20:00N 25°47' W 080°11'1 1.2
2018-May-21 19:28N 25°47' W 080°10'0 0.0
2018-May-21 18:58N 25°47' W 080°10'0 0.0
2018-May-21 18:25N 25°47' W 080°10'0 0.0
2018-May-21 17:59N 25°47' W 080°10'0 0.0
2018-May-21 17:22N 25°47' W 080°10'0 0.0
2018-May-21 16:58N 25°47' W 080°10'0 0.0
2018-May-21 16:28N 25°47' W 080°10'0 0.0
2018-May-21 15:58N 25°47' W 080°10'0 0.0
2018-May-21 15:25N 25°47' W 080°10'0 0.0
2018-May-21 15:00N 25°47' W 080°10'0 0.0
2018-May-21 14:30N 25°47' W 080°10'0 0.0
2018-May-21 14:00N 25°47' W 080°10'0 0.0
2018-May-21 13:30N 25°47' W 080°10'0 0.0
2018-May-21 13:00N 25°47' W 080°10'0 0.0
2018-May-21 12:30N 25°47' W 080°10'0 0.0
2018-May-21 11:50N 25°47' W 080°10'0 0.0
2018-May-21 11:29N 25°47' W 080°10'0 0.5
2018-May-21 11:00N 25°47' W 080°10'4 7.5
2018-May-21 10:30N 25°46' W 080°06'510.6
2018-May-21 10:00N 25°45' W 080°00'3 5.9
2018-May-21 09:30N 25°46' W 079°58'5 9.2
2018-May-21 09:00N 25°46' W 079°53'612.4
2018-May-21 08:29N 25°46' W 079°45'43 1.4
2018-May-20 01:36N 26°12' W 079°08'114.0
2018-May-20 01:30N 26°12' W 079°10'714.4
2018-May-20 01:00N 26°15' W 079°17'12 0.7
2018-May-19 07:51N 26°26' W 079°23'411.7
2018-May-19 07:31N 26°22' W 079°23'611.6
2018-May-19 07:00N 26°16' W 079°23'5 9.6
2018-May-19 06:31N 26°14' W 079°19'13 0.5
2018-May-18 01:57N 26°25' W 079°12'811.5
2018-May-18 01:15N 26°26' W 079°21'412.7
2018-May-18 00:57N 26°22' W 079°23'511.9
2018-May-18 00:30N 26°18' W 079°25'612.2
2018-May-18 00:00N 26°12' W 079°28'612.5
2018-May-17 23:30N 26°07' W 079°32'713.6
2018-May-17 23:00N 26°01' W 079°35'815.5
2018-May-17 22:30N 25°54' W 079°39'714.5
2018-May-17 22:01N 25°48' W 079°43'612.1
2018-May-17 21:29N 25°47' W 079°50'612.2
2018-May-17 21:00N 25°47' W 079°57'612.3
2018-May-17 20:30N 25°47' W 080°04'510.0
2018-May-17 20:00N 25°46' W 080°09'1 2.1
2018-May-17 19:28N 25°47' W 080°10'0 0.0
2018-May-17 18:58N 25°47' W 080°10'0 0.0
2018-May-17 18:28N 25°47' W 080°10'0 0.0
2018-May-17 17:58N 25°47' W 080°10'0 0.0
2018-May-17 17:28N 25°47' W 080°10'0 0.0
2018-May-17 16:58N 25°47' W 080°10'0 0.0
2018-May-17 16:28N 25°47' W 080°10'0 0.0
2018-May-17 15:58N 25°47' W 080°10'0 0.0
2018-May-17 15:28N 25°47' W 080°10'0 0.0
2018-May-17 14:58N 25°47' W 080°10'0 0.0
2018-May-17 14:28N 25°47' W 080°10'0 0.0
2018-May-17 13:58N 25°47' W 080°10'0 0.0
2018-May-17 13:25N 25°47' W 080°10'0 0.0
2018-May-17 12:58N 25°47' W 080°10'0 0.0
2018-May-17 12:28N 25°47' W 080°10'0 0.0
2018-May-17 11:52N 25°47' W 080°10'0 0.0
2018-May-17 11:22N 25°47' W 080°10'0 0.0
2018-May-17 10:58N 25°47' W 080°10'0 0.6
2018-May-17 10:30N 25°47' W 080°10'1 2.3
2018-May-17 10:00N 25°46' W 080°09'611.6
2018-May-17 09:30N 25°46' W 080°03'510.5
2018-May-17 09:00N 25°47' W 079°57'510.5
2018-May-17 08:31N 25°49' W 079°52'714.6
2018-May-17 08:00N 25°53' W 079°45'815.8
2018-May-17 07:28N 25°59' W 079°38'816.5
2018-May-17 07:00N 26°03' W 079°31'816.7
2018-May-17 06:30N 26°09' W 079°24'917.1
2018-May-17 05:58N 26°15' W 079°17'  

Dump ship's entire track history